Time;durP1;ratioP1;P1;durP2;ratioP2;P2;SDS_P1;SDS_P2;PMS_P1;PMS_P2;Temp;Humidity;BMP_temperature;BMP_pressure;BME280_temperature;BME280_humidity;BME280_pressure;Samples;Min_cycle;Max_cycle;Signal;HPM_P1;HPM_P2
2024/03/31 00:02:16;;;;;;;0.10;0.10;;;;;;;;;;5030999;28;20084;-85
2024/03/31 00:04:42;;;;;;;0.30;0.30;;;;;;;;;;5014633;28;20081;-86
2024/03/31 00:07:08;;;;;;;0.20;0.20;;;;;;;;;;5014379;28;20484;-87
2024/03/31 00:09:34;;;;;;;0.10;0.10;;;;;;;;;;5014557;28;20088;-86
2024/03/31 00:12:00;;;;;;;0.10;0.10;;;;;;;;;;5014375;28;20496;-87
2024/03/31 00:14:26;;;;;;;0.10;0.10;;;;;;;;;;5014656;28;20037;-87
2024/03/31 00:16:52;;;;;;;0.32;0.32;;;;;;;;;;5030816;28;20041;-87
2024/03/31 00:19:18;;;;;;;0.10;0.10;;;;;;;;;;5014532;28;20400;-86
2024/03/31 00:21:44;;;;;;;0.10;0.10;;;;;;;;;;5030463;28;20044;-85
2024/03/31 00:24:10;;;;;;;0.10;0.10;;;;;;;;;;5014752;28;20077;-85
2024/03/31 00:26:36;;;;;;;0.10;0.10;;;;;;;;;;4998017;28;20091;-85
2024/03/31 00:29:02;;;;;;;0.10;0.10;;;;;;;;;;5030563;28;20045;-86
2024/03/31 00:31:28;;;;;;;0.10;0.10;;;;;;;;;;5030615;28;20041;-85
2024/03/31 00:33:54;;;;;;;0.10;0.10;;;;;;;;;;5030882;28;20038;-86
2024/03/31 00:36:20;;;;;;;0.10;0.10;;;;;;;;;;5030673;28;20037;-85
2024/03/31 00:38:46;;;;;;;0.10;0.10;;;;;;;;;;5031229;28;20133;-87
2024/03/31 00:41:12;;;;;;;0.10;0.10;;;;;;;;;;5030705;28;20045;-86
2024/03/31 00:43:38;;;;;;;0.10;0.10;;;;;;;;;;5030628;28;20080;-85
2024/03/31 00:46:04;;;;;;;0.10;0.10;;;;;;;;;;5014458;28;20048;-85
2024/03/31 00:48:30;;;;;;;0.15;0.15;;;;;;;;;;4997598;28;20103;-85
2024/03/31 00:50:56;;;;;;;0.10;0.10;;;;;;;;;;5014116;28;20064;-85
2024/03/31 00:53:21;;;;;;;0.10;0.10;;;;;;;;;;5014116;28;20076;-85
2024/03/31 00:55:47;;;;;;;0.10;0.10;;;;;;;;;;5030487;28;20034;-86
2024/03/31 00:58:13;;;;;;;0.10;0.10;;;;;;;;;;5014260;28;20099;-86
2024/03/31 01:00:39;;;;;;;0.10;0.10;;;;;;;;;;5014087;28;20038;-85
2024/03/31 01:03:07;;;;;;;0.10;0.10;;;;;;;;;;5013996;28;20508;-85
2024/03/31 01:05:33;;;;;;;0.10;0.10;;;;;;;;;;5013956;28;20091;-85
2024/03/31 01:07:59;;;;;;;0.20;0.20;;;;;;;;;;4997794;28;20128;-85
2024/03/31 01:10:25;;;;;;;0.10;0.10;;;;;;;;;;5013953;28;20041;-86
2024/03/31 01:12:51;;;;;;;0.10;0.10;;;;;;;;;;5013955;28;20443;-86
2024/03/31 01:15:17;;;;;;;0.10;0.10;;;;;;;;;;5014069;28;20132;-86
2024/03/31 01:17:44;;;;;;;0.10;0.10;;;;;;;;;;4997621;28;20049;-86
2024/03/31 01:20:10;;;;;;;0.10;0.10;;;;;;;;;;5030318;28;20049;-85
2024/03/31 01:22:36;;;;;;;0.10;0.10;;;;;;;;;;5014134;28;20049;-85
2024/03/31 01:25:02;;;;;;;0.10;0.10;;;;;;;;;;4997748;28;20132;-85
2024/03/31 01:27:28;;;;;;;0.10;0.10;;;;;;;;;;5030186;28;20140;-86
2024/03/31 01:29:54;;;;;;;0.17;0.17;;;;;;;;;;5030442;28;20051;-85
2024/03/31 01:32:19;;;;;;;0.10;0.10;;;;;;;;;;5031316;28;20042;-87
2024/03/31 01:34:45;;;;;;;0.10;0.10;;;;;;;;;;5033091;28;20536;-85
2024/03/31 01:37:11;;;;;;;0.30;0.30;;;;;;;;;;5017221;28;20044;-86
2024/03/31 01:39:37;;;;;;;0.10;0.10;;;;;;;;;;5033806;28;20094;-86
2024/03/31 01:42:04;;;;;;;0.10;0.10;;;;;;;;;;5017058;28;20053;-85
2024/03/31 01:44:29;;;;;;;0.10;0.10;;;;;;;;;;5033784;28;20385;-86
2024/03/31 01:46:55;;;;;;;0.10;0.10;;;;;;;;;;5016972;28;20029;-86
2024/03/31 01:49:21;;;;;;;0.10;0.10;;;;;;;;;;5016824;28;20049;-86
2024/03/31 01:51:47;;;;;;;0.10;0.10;;;;;;;;;;5033438;28;20140;-86
2024/03/31 01:54:13;;;;;;;0.10;0.10;;;;;;;;;;5033321;28;20044;-86
2024/03/31 01:56:39;;;;;;;0.10;0.10;;;;;;;;;;5033297;28;20445;-85
2024/03/31 01:59:06;;;;;;;0.10;0.10;;;;;;;;;;5033210;28;20037;-86
2024/03/31 02:01:32;;;;;;;0.10;0.10;;;;;;;;;;5016657;28;20052;-86
2024/03/31 02:03:58;;;;;;;0.10;0.10;;;;;;;;;;5033214;28;20077;-85
2024/03/31 02:06:24;;;;;;;0.10;0.10;;;;;;;;;;5033099;28;20408;-86
2024/03/31 02:08:50;;;;;;;0.10;0.10;;;;;;;;;;5033123;28;20045;-85
2024/03/31 02:11:16;;;;;;;0.10;0.10;;;;;;;;;;5033222;28;20133;-85
2024/03/31 02:13:42;;;;;;;0.10;0.10;;;;;;;;;;5033073;28;20041;-85
2024/03/31 02:16:08;;;;;;;0.10;0.10;;;;;;;;;;5016428;28;20064;-86
2024/03/31 02:18:34;;;;;;;0.10;0.10;;;;;;;;;;5016488;28;20069;-86
2024/03/31 02:20:59;;;;;;;0.20;0.20;;;;;;;;;;5032884;28;20542;-85
2024/03/31 02:23:25;;;;;;;0.10;0.10;;;;;;;;;;5000222;28;20049;-83
2024/03/31 02:25:51;;;;;;;0.10;0.10;;;;;;;;;;5016484;28;20045;-87
2024/03/31 02:28:17;;;;;;;0.10;0.10;;;;;;;;;;5000184;28;20132;-86
2024/03/31 02:30:43;;;;;;;0.10;0.10;;;;;;;;;;5032746;28;20033;-87
2024/03/31 02:33:09;;;;;;;0.10;0.10;;;;;;;;;;5016301;28;20041;-86
2024/03/31 02:35:35;;;;;;;0.10;0.10;;;;;;;;;;5000293;28;20045;-88
2024/03/31 02:38:01;;;;;;;0.10;0.10;;;;;;;;;;4999808;28;20049;-87
2024/03/31 02:40:27;;;;;;;0.13;0.13;;;;;;;;;;5033753;28;20057;-87
2024/03/31 02:42:53;;;;;;;0.10;0.10;;;;;;;;;;5032436;28;20451;-87
2024/03/31 02:45:19;;;;;;;0.22;0.20;;;;;;;;;;5015753;28;20107;-87
2024/03/31 02:47:45;;;;;;;0.10;0.10;;;;;;;;;;5015766;28;20108;-86
2024/03/31 02:50:11;;;;;;;0.10;0.10;;;;;;;;;;5015938;28;20488;-87
2024/03/31 02:52:37;;;;;;;0.10;0.10;;;;;;;;;;4999923;28;20044;-87
2024/03/31 02:55:03;;;;;;;0.10;0.10;;;;;;;;;;5015834;28;20499;-86
2024/03/31 02:57:29;;;;;;;0.10;0.10;;;;;;;;;;5015901;28;20038;-87
2024/03/31 02:59:55;;;;;;;0.10;0.10;;;;;;;;;;5015613;28;20684;-87
2024/03/31 03:02:21;;;;;;;0.10;0.10;;;;;;;;;;5032319;28;20053;-86
2024/03/31 03:04:47;;;;;;;0.10;0.10;;;;;;;;;;5015718;28;20048;-86
2024/03/31 03:07:13;;;;;;;0.10;0.10;;;;;;;;;;5031888;28;20686;-87
2024/03/31 03:09:39;;;;;;;0.10;0.10;;;;;;;;;;5032282;28;20052;-86
2024/03/31 03:12:05;;;;;;;0.20;0.20;;;;;;;;;;5016043;28;20030;-86
2024/03/31 03:14:32;;;;;;;0.10;0.10;;;;;;;;;;5016359;28;20060;-87
2024/03/31 03:16:58;;;;;;;0.10;0.10;;;;;;;;;;5016580;28;20033;-87
2024/03/31 03:19:24;;;;;;;0.10;0.10;;;;;;;;;;5032894;28;20048;-86
2024/03/31 03:21:51;;;;;;;0.10;0.10;;;;;;;;;;5016692;28;20041;-86
2024/03/31 03:24:18;;;;;;;0.10;0.10;;;;;;;;;;4999786;28;20045;-86
2024/03/31 03:26:46;;;;;;;0.10;0.10;;;;;;;;;;5031573;28;20554;-86
2024/03/31 03:29:12;;;;;;;0.10;0.10;;;;;;;;;;5015186;28;20091;-86
2024/03/31 03:31:38;;;;;;;0.10;0.10;;;;;;;;;;5015040;28;20045;-86
2024/03/31 03:34:04;;;;;;;0.10;0.10;;;;;;;;;;5031427;28;20068;-86
2024/03/31 03:36:30;;;;;;;0.10;0.10;;;;;;;;;;5031362;28;20041;-86
2024/03/31 03:38:56;;;;;;;0.10;0.10;;;;;;;;;;5031493;28;20128;-86
2024/03/31 03:41:22;;;;;;;0.10;0.10;;;;;;;;;;5031291;28;20128;-86
2024/03/31 03:43:48;;;;;;;0.20;0.20;;;;;;;;;;5031460;28;20042;-86
2024/03/31 03:46:14;;;;;;;0.10;0.10;;;;;;;;;;5015146;28;20095;-85
2024/03/31 03:48:40;;;;;;;0.10;0.10;;;;;;;;;;5031118;28;20085;-87
2024/03/31 03:51:06;;;;;;;0.10;0.10;;;;;;;;;;5031429;28;20041;-86
2024/03/31 03:53:32;;;;;;;0.20;0.20;;;;;;;;;;5031220;28;20492;-86
2024/03/31 03:55:58;;;;;;;0.10;0.10;;;;;;;;;;5030762;28;20048;-87
2024/03/31 03:58:24;;;;;;;0.10;0.10;;;;;;;;;;5015198;28;20508;-85
2024/03/31 04:00:50;;;;;;;0.10;0.10;;;;;;;;;;5014519;28;20045;-86
2024/03/31 04:03:16;;;;;;;0.10;0.10;;;;;;;;;;5014886;28;20052;-85
2024/03/31 04:05:42;;;;;;;0.10;0.10;;;;;;;;;;5031291;28;20049;-86
2024/03/31 04:08:08;;;;;;;0.10;0.10;;;;;;;;;;5014457;28;20045;-86
2024/03/31 04:10:39;;;;;;;0.10;0.10;;;;;;;;;;5014462;28;20045;-87
2024/03/31 04:13:05;;;;;;;0.10;0.10;;;;;;;;;;5014649;28;20041;-86
2024/03/31 04:15:31;;;;;;;0.10;0.10;;;;;;;;;;5030869;28;20484;-86
2024/03/31 04:17:57;;;;;;;0.10;0.10;;;;;;;;;;4998350;28;20045;-86
2024/03/31 04:20:23;;;;;;;0.10;0.10;;;;;;;;;;5031056;28;20144;-86
2024/03/31 04:22:50;;;;;;;0.10;0.10;;;;;;;;;;5030824;28;20091;-86
2024/03/31 04:25:16;;;;;;;0.25;0.17;;;;;;;;;;5031078;28;20057;-87
2024/03/31 04:27:42;;;;;;;0.10;0.10;;;;;;;;;;5014333;28;20041;-87
2024/03/31 04:30:08;;;;;;;0.10;0.10;;;;;;;;;;5014337;28;20038;-87
2024/03/31 04:32:34;;;;;;;0.20;0.20;;;;;;;;;;4997990;28;20037;-87
2024/03/31 04:35:00;;;;;;;0.10;0.10;;;;;;;;;;5014382;28;20496;-86
2024/03/31 04:37:26;;;;;;;0.10;0.10;;;;;;;;;;5014380;28;20052;-87
2024/03/31 04:39:52;;;;;;;0.10;0.10;;;;;;;;;;5030580;28;20077;-86
2024/03/31 04:42:18;;;;;;;0.10;0.10;;;;;;;;;;5014256;28;20056;-87
2024/03/31 04:44:44;;;;;;;0.10;0.10;;;;;;;;;;5014438;28;20045;-86
2024/03/31 04:47:10;;;;;;;0.10;0.10;;;;;;;;;;4998086;28;20428;-86
2024/03/31 04:49:36;;;;;;;0.10;0.10;;;;;;;;;;5030547;28;20168;-86
2024/03/31 04:52:02;;;;;;;0.10;0.10;;;;;;;;;;5030652;28;20045;-87
2024/03/31 04:54:28;;;;;;;0.10;0.10;;;;;;;;;;5030934;28;20066;-86
2024/03/31 04:56:54;;;;;;;0.10;0.10;;;;;;;;;;5014098;28;20476;-86
2024/03/31 04:59:20;;;;;;;0.10;0.10;;;;;;;;;;5030720;28;20041;-86
2024/03/31 05:01:46;;;;;;;0.32;0.20;;;;;;;;;;5030414;28;20048;-86
2024/03/31 05:04:12;;;;;;;0.10;0.10;;;;;;;;;;5030422;28;20168;-86
2024/03/31 05:06:38;;;;;;;0.10;0.10;;;;;;;;;;5030384;28;20167;-86
2024/03/31 05:09:04;;;;;;;0.20;0.20;;;;;;;;;;5033694;28;20583;-86
2024/03/31 05:11:30;;;;;;;0.10;0.10;;;;;;;;;;5034264;28;20124;-86
2024/03/31 05:13:56;;;;;;;0.10;0.10;;;;;;;;;;5034039;28;20128;-86
2024/03/31 05:16:22;;;;;;;0.15;0.15;;;;;;;;;;5017583;28;20370;-86
2024/03/31 05:18:51;;;;;;;0.10;0.10;;;;;;;;;;5017437;28;20092;-86
2024/03/31 05:21:17;;;;;;;0.10;0.10;;;;;;;;;;5001388;28;20052;-85
2024/03/31 05:23:45;;;;;;;0.10;0.10;;;;;;;;;;5033902;28;20084;-86
2024/03/31 05:26:12;;;;;;;0.10;0.10;;;;;;;;;;5018294;28;20045;-86
2024/03/31 05:28:37;;;;;;;0.20;0.20;;;;;;;;;;5017507;28;20393;-85
2024/03/31 05:31:04;;;;;;;0.10;0.10;;;;;;;;;;5001105;28;20045;-86
2024/03/31 05:33:30;;;;;;;0.10;0.10;;;;;;;;;;5017863;28;20108;-86
2024/03/31 05:35:56;;;;;;;0.10;0.10;;;;;;;;;;5033782;28;20034;-86
2024/03/31 05:38:22;;;;;;;0.10;0.10;;;;;;;;;;5017554;28;20139;-87
2024/03/31 05:40:48;;;;;;;0.13;0.13;;;;;;;;;;5033573;28;20073;-87
2024/03/31 05:43:14;;;;;;;0.10;0.10;;;;;;;;;;5017138;28;20051;-86
2024/03/31 05:45:40;;;;;;;0.20;0.20;;;;;;;;;;5033795;28;20073;-86
2024/03/31 05:48:07;;;;;;;0.20;0.20;;;;;;;;;;5033318;28;20057;-87
2024/03/31 05:50:33;;;;;;;0.17;0.17;;;;;;;;;;5016923;28;20042;-87
2024/03/31 05:52:59;;;;;;;0.10;0.10;;;;;;;;;;5033446;28;20125;-86
2024/03/31 05:55:25;;;;;;;0.20;0.20;;;;;;;;;;5033645;28;20449;-86
2024/03/31 05:57:51;;;;;;;0.10;0.10;;;;;;;;;;5017308;28;20052;-86
2024/03/31 06:00:17;;;;;;;0.10;0.10;;;;;;;;;;5016756;28;20042;-86
2024/03/31 06:02:43;;;;;;;0.10;0.10;;;;;;;;;;5016841;28;20048;-86
2024/03/31 06:05:09;;;;;;;0.10;0.10;;;;;;;;;;5000383;28;20128;-87
2024/03/31 06:07:36;;;;;;;0.10;0.10;;;;;;;;;;5033138;28;20183;-87
2024/03/31 06:10:02;;;;;;;0.20;0.20;;;;;;;;;;5000770;28;20056;-87
2024/03/31 06:12:28;;;;;;;0.10;0.10;;;;;;;;;;5016647;28;20037;-86
2024/03/31 06:14:54;;;;;;;0.20;0.20;;;;;;;;;;5033233;28;20037;-85
2024/03/31 06:17:20;;;;;;;0.10;0.10;;;;;;;;;;5016559;28;20037;-86
2024/03/31 06:19:46;;;;;;;0.10;0.10;;;;;;;;;;4999470;28;20038;-86
2024/03/31 06:22:12;;;;;;;0.10;0.10;;;;;;;;;;5016605;28;20405;-86
2024/03/31 06:24:38;;;;;;;0.10;0.10;;;;;;;;;;5032835;28;20048;-86
2024/03/31 06:27:04;;;;;;;0.35;0.35;;;;;;;;;;5016715;28;20037;-87
2024/03/31 06:29:30;;;;;;;0.10;0.10;;;;;;;;;;5032644;28;20065;-86
2024/03/31 06:31:56;;;;;;;0.10;0.10;;;;;;;;;;5016521;28;20077;-86
2024/03/31 06:34:22;;;;;;;0.17;0.17;;;;;;;;;;5033847;28;20037;-85
2024/03/31 06:36:48;;;;;;;0.10;0.10;;;;;;;;;;5032685;28;20519;-86
2024/03/31 06:39:14;;;;;;;0.10;0.10;;;;;;;;;;5032592;28;20052;-84
2024/03/31 06:41:40;;;;;;;0.10;0.10;;;;;;;;;;5015977;28;20544;-86
2024/03/31 06:44:06;;;;;;;0.20;0.20;;;;;;;;;;5032585;28;20099;-86
2024/03/31 06:46:32;;;;;;;0.15;0.15;;;;;;;;;;5032493;28;20412;-84
2024/03/31 06:48:58;;;;;;;0.30;0.30;;;;;;;;;;5031993;28;20045;-86
2024/03/31 06:51:24;;;;;;;0.10;0.10;;;;;;;;;;5032162;28;20057;-85
2024/03/31 06:53:50;;;;;;;0.32;0.30;;;;;;;;;;5015750;28;20120;-85
2024/03/31 06:56:19;;;;;;;0.10;0.10;;;;;;;;;;5015796;28;20041;-88
2024/03/31 06:58:45;;;;;;;0.10;0.10;;;;;;;;;;5016351;28;20488;-84
2024/03/31 07:01:11;;;;;;;0.10;0.10;;;;;;;;;;5032920;28;20128;-84
2024/03/31 07:03:38;;;;;;;0.10;0.10;;;;;;;;;;5015907;28;20156;-85
2024/03/31 07:06:04;;;;;;;0.10;0.10;;;;;;;;;;5032125;28;20104;-88
2024/03/31 07:08:30;;;;;;;0.10;0.10;;;;;;;;;;5032040;28;20051;-89
2024/03/31 07:10:56;;;;;;;0.20;0.20;;;;;;;;;;5016094;28;20064;-87
2024/03/31 07:13:22;;;;;;;0.10;0.10;;;;;;;;;;5032161;28;20041;-89
2024/03/31 07:15:48;;;;;;;0.20;0.20;;;;;;;;;;5032762;28;20263;-92
2024/03/31 07:18:14;;;;;;;0.20;0.20;;;;;;;;;;5015937;28;20151;-89
2024/03/31 07:20:40;;;;;;;0.85;0.85;;;;;;;;;;4999162;28;20532;-87
2024/03/31 07:23:06;;;;;;;1.60;0.90;;;;;;;;;;4999174;28;20205;-87
2024/03/31 07:25:33;;;;;;;0.40;0.40;;;;;;;;;;5015358;28;20369;-86
2024/03/31 07:27:59;;;;;;;0.20;0.20;;;;;;;;;;5015410;28;20515;-88
2024/03/31 07:30:25;;;;;;;0.28;0.28;;;;;;;;;;5014546;28;20116;-85
2024/03/31 07:32:52;;;;;;;0.10;0.10;;;;;;;;;;4998417;28;20114;-85
2024/03/31 07:35:18;;;;;;;0.10;0.10;;;;;;;;;;5015424;28;20048;-85
2024/03/31 07:37:44;;;;;;;0.20;0.20;;;;;;;;;;5015039;28;20045;-86
2024/03/31 07:40:10;;;;;;;0.20;0.20;;;;;;;;;;5015004;28;20431;-87
2024/03/31 07:42:36;;;;;;;0.20;0.20;;;;;;;;;;5015107;28;20045;-86
2024/03/31 07:45:03;;;;;;;0.20;0.20;;;;;;;;;;4988141;28;20033;-85
2024/03/31 07:47:30;;;;;;;0.50;0.10;;;;;;;;;;4994993;28;20053;-85
2024/03/31 07:49:56;;;;;;;0.35;0.30;;;;;;;;;;4995133;28;20049;-88
2024/03/31 07:52:22;;;;;;;0.15;0.15;;;;;;;;;;4995365;28;20040;-86
2024/03/31 07:54:48;;;;;;;0.20;0.20;;;;;;;;;;5011451;28;20038;-87
2024/03/31 07:57:15;;;;;;;0.20;0.20;;;;;;;;;;4995737;28;20087;-91
2024/03/31 07:59:41;;;;;;;0.40;0.40;;;;;;;;;;4995685;28;20041;-89
2024/03/31 08:02:07;;;;;;;0.30;0.30;;;;;;;;;;4995154;28;20177;-85
2024/03/31 08:04:33;;;;;;;0.17;0.17;;;;;;;;;;4994980;28;20045;-86
2024/03/31 08:06:59;;;;;;;0.25;0.25;;;;;;;;;;4995241;28;20037;-87
2024/03/31 08:09:25;;;;;;;0.95;0.25;;;;;;;;;;4978988;28;20030;-86
2024/03/31 08:11:51;;;;;;;0.20;0.20;;;;;;;;;;4994916;28;20042;-86
2024/03/31 08:14:17;;;;;;;0.20;0.20;;;;;;;;;;4988656;28;20130;-85
2024/03/31 08:16:43;;;;;;;0.10;0.10;;;;;;;;;;5030640;28;20457;-86
2024/03/31 08:19:09;;;;;;;0.15;0.15;;;;;;;;;;5030720;28;20056;-86
2024/03/31 08:21:35;;;;;;;0.22;0.22;;;;;;;;;;5031127;28;20067;-86
2024/03/31 08:24:01;;;;;;;0.20;0.20;;;;;;;;;;4997920;28;20497;-86
2024/03/31 08:26:27;;;;;;;0.20;0.20;;;;;;;;;;5030666;28;20160;-86
2024/03/31 08:28:53;;;;;;;0.35;0.20;;;;;;;;;;5030341;28;20516;-85
2024/03/31 08:31:19;;;;;;;2.50;0.40;;;;;;;;;;5030762;28;20041;-86
2024/03/31 08:33:46;;;;;;;0.93;0.93;;;;;;;;;;5014230;28;20112;-86
2024/03/31 08:36:12;;;;;;;0.77;0.63;;;;;;;;;;4997987;28;20045;-86
2024/03/31 08:38:38;;;;;;;0.20;0.20;;;;;;;;;;4997806;28;20049;-85
2024/03/31 08:41:05;;;;;;;0.10;0.10;;;;;;;;;;5030438;28;20424;-85
2024/03/31 08:43:31;;;;;;;0.35;0.35;;;;;;;;;;5033351;28;20046;-88
2024/03/31 08:45:57;;;;;;;0.22;0.22;;;;;;;;;;5018171;28;20401;-88
2024/03/31 08:48:24;;;;;;;0.20;0.20;;;;;;;;;;5017775;28;20054;-88
2024/03/31 08:50:49;;;;;;;0.30;0.30;;;;;;;;;;5001796;28;20037;-89
2024/03/31 08:53:16;;;;;;;3.83;0.95;;;;;;;;;;5001939;28;20045;-91
2024/03/31 08:55:42;;;;;;;0.63;0.60;;;;;;;;;;5001829;28;20048;-89
2024/03/31 08:58:08;;;;;;;0.30;0.30;;;;;;;;;;5001679;28;20041;-87
2024/03/31 09:00:35;;;;;;;0.57;0.57;;;;;;;;;;5001898;28;20524;-87
2024/03/31 09:03:03;;;;;;;0.20;0.20;;;;;;;;;;5017970;28;20481;-88
2024/03/31 09:05:29;;;;;;;0.57;0.45;;;;;;;;;;5018323;28;20339;-86
2024/03/31 09:07:55;;;;;;;0.20;0.20;;;;;;;;;;5034047;28;20103;-86
2024/03/31 09:10:22;;;;;;;0.28;0.28;;;;;;;;;;5017900;28;20289;-86
2024/03/31 09:12:49;;;;;;;0.28;0.28;;;;;;;;;;5001302;28;20048;-87
2024/03/31 09:15:15;;;;;;;0.57;0.57;;;;;;;;;;5017531;28;20049;-86
2024/03/31 09:17:41;;;;;;;0.15;0.15;;;;;;;;;;5017747;28;20489;-86
2024/03/31 09:20:07;;;;;;;0.25;0.25;;;;;;;;;;5017390;28;20046;-87
2024/03/31 09:22:37;;;;;;;0.32;0.32;;;;;;;;;;5017817;28;20124;-87
2024/03/31 09:25:03;;;;;;;0.50;0.50;;;;;;;;;;5001974;28;20084;-87
2024/03/31 09:27:29;;;;;;;0.10;0.10;;;;;;;;;;5017757;28;20186;-89
2024/03/31 09:29:58;;;;;;;0.30;0.30;;;;;;;;;;5017442;28;20471;-90
2024/03/31 09:32:25;;;;;;;0.22;0.22;;;;;;;;;;5017419;28;20045;-89
2024/03/31 09:34:51;;;;;;;0.40;0.40;;;;;;;;;;5001296;28;20037;-88
2024/03/31 09:37:17;;;;;;;1.08;0.30;;;;;;;;;;5033866;28;20053;-87
2024/03/31 09:39:46;;;;;;;0.30;0.30;;;;;;;;;;5000898;28;20041;-90
2024/03/31 09:42:12;;;;;;;0.30;0.30;;;;;;;;;;5034056;28;20539;-91
2024/03/31 09:44:39;;;;;;;0.20;0.20;;;;;;;;;;5017483;28;20484;-89
2024/03/31 09:47:07;;;;;;;0.10;0.10;;;;;;;;;;5001408;28;20128;-89
2024/03/31 09:49:34;;;;;;;0.60;0.28;;;;;;;;;;5017696;28;20041;-89
2024/03/31 09:52:00;;;;;;;0.10;0.10;;;;;;;;;;5001053;28;20044;-90
2024/03/31 09:54:27;;;;;;;0.10;0.10;;;;;;;;;;5016748;28;20060;-88
2024/03/31 09:57:13;;;;;;;0.30;0.30;;;;;;;;;;5017755;28;20043;-92
2024/03/31 09:59:40;;;;;;;0.30;0.30;;;;;;;;;;5017841;28;20053;-90
2024/03/31 10:02:09;;;;;;;0.38;0.30;;;;;;;;;;5001614;28;20033;-90
2024/03/31 10:04:36;;;;;;;0.47;0.47;;;;;;;;;;5017718;28;20064;-89
2024/03/31 10:07:03;;;;;;;0.30;0.30;;;;;;;;;;5016710;28;20041;-85
2024/03/31 10:09:29;;;;;;;0.85;0.50;;;;;;;;;;5016523;28;20069;-86
2024/03/31 10:11:56;;;;;;;0.20;0.20;;;;;;;;;;5000179;28;20117;-85
2024/03/31 10:14:22;;;;;;;0.25;0.25;;;;;;;;;;5016653;28;20117;-86
2024/03/31 10:16:48;;;;;;;0.35;0.35;;;;;;;;;;5016632;28;20041;-85
2024/03/31 10:19:15;;;;;;;0.55;0.20;;;;;;;;;;5016587;28;20041;-86
2024/03/31 10:21:41;;;;;;;0.25;0.25;;;;;;;;;;5016716;28;20476;-87
2024/03/31 10:24:07;;;;;;;0.20;0.20;;;;;;;;;;5000202;28;20033;-87
2024/03/31 10:26:33;;;;;;;0.35;0.35;;;;;;;;;;5016483;28;20099;-87
2024/03/31 10:28:59;;;;;;;0.63;0.30;;;;;;;;;;5016288;28;20508;-86
2024/03/31 10:31:25;;;;;;;0.10;0.10;;;;;;;;;;5016445;28;20128;-85
2024/03/31 10:33:51;;;;;;;0.20;0.20;;;;;;;;;;5016131;28;20041;-84
2024/03/31 10:36:17;;;;;;;0.52;0.52;;;;;;;;;;5016234;28;20046;-84
2024/03/31 10:38:43;;;;;;;0.30;0.30;;;;;;;;;;5016247;28;20484;-85
2024/03/31 10:41:10;;;;;;;0.20;0.20;;;;;;;;;;5015948;28;20056;-86
2024/03/31 10:43:36;;;;;;;1.85;0.50;;;;;;;;;;4999718;28;20052;-86
2024/03/31 10:46:02;;;;;;;0.38;0.38;;;;;;;;;;5016312;28;20077;-86
2024/03/31 10:48:28;;;;;;;0.20;0.20;;;;;;;;;;5015724;28;20054;-86
2024/03/31 10:50:55;;;;;;;0.25;0.20;;;;;;;;;;5016129;28;20047;-86
2024/03/31 10:53:27;;;;;;;0.40;0.38;;;;;;;;;;5015897;28;20037;-86
2024/03/31 10:55:53;;;;;;;0.17;0.17;;;;;;;;;;4999592;28;20080;-85
2024/03/31 10:58:19;;;;;;;0.25;0.25;;;;;;;;;;5015880;28;20052;-85
2024/03/31 11:00:45;;;;;;;0.70;0.40;;;;;;;;;;5015877;28;20037;-85
2024/03/31 11:03:11;;;;;;;0.30;0.30;;;;;;;;;;5015643;28;20053;-85
2024/03/31 11:05:40;;;;;;;0.47;0.30;;;;;;;;;;5015590;28;20059;-85
2024/03/31 11:08:08;;;;;;;0.40;0.40;;;;;;;;;;5032156;28;20042;-86
2024/03/31 11:10:36;;;;;;;0.32;0.32;;;;;;;;;;5031908;28;20046;-86
2024/03/31 11:13:03;;;;;;;0.38;0.38;;;;;;;;;;5015628;28;20485;-85
2024/03/31 11:15:29;;;;;;;0.10;0.10;;;;;;;;;;4999009;28;20043;-87
2024/03/31 11:17:55;;;;;;;0.20;0.20;;;;;;;;;;5031869;28;20042;-85
2024/03/31 11:20:21;;;;;;;0.25;0.25;;;;;;;;;;5031964;28;20201;-86
2024/03/31 11:22:47;;;;;;;0.30;0.30;;;;;;;;;;5031856;28;20041;-85
2024/03/31 11:25:13;;;;;;;0.28;0.28;;;;;;;;;;5015252;28;20041;-86
2024/03/31 11:27:39;;;;;;;0.20;0.20;;;;;;;;;;5015140;28;20041;-86
2024/03/31 11:30:05;;;;;;;0.40;0.40;;;;;;;;;;5015029;28;20488;-86
2024/03/31 11:32:34;;;;;;;0.10;0.10;;;;;;;;;;5015332;28;20045;-86
2024/03/31 11:35:00;;;;;;;0.45;0.45;;;;;;;;;;5015281;28;20476;-85
2024/03/31 11:37:26;;;;;;;0.38;0.38;;;;;;;;;;5015074;28;20042;-85
2024/03/31 11:39:59;;;;;;;0.30;0.30;;;;;;;;;;5015016;28;20172;-85
2024/03/31 11:42:25;;;;;;;;;;;;;;;;;;4999139;28;20038;-86
2024/03/31 11:44:51;;;;;;;0.20;0.20;;;;;;;;;;5014924;28;19920;-86
2024/03/31 11:47:17;;;;;;;0.55;0.55;;;;;;;;;;5014961;28;20217;-85
2024/03/31 11:49:43;;;;;;;0.10;0.10;;;;;;;;;;5031173;28;20049;-85
2024/03/31 11:52:09;;;;;;;0.20;0.20;;;;;;;;;;5015101;28;20204;-86
2024/03/31 11:54:35;;;;;;;0.17;0.17;;;;;;;;;;5014927;28;20038;-86
2024/03/31 11:57:05;;;;;;;0.10;0.10;;;;;;;;;;5014689;28;20041;-86
2024/03/31 11:59:31;;;;;;;0.20;0.20;;;;;;;;;;5014467;28;20511;-85
2024/03/31 12:01:57;;;;;;;0.10;0.10;;;;;;;;;;5030934;28;20045;-85
2024/03/31 12:04:24;;;;;;;0.10;0.10;;;;;;;;;;5031089;28;20060;-84
2024/03/31 12:06:50;;;;;;;0.10;0.10;;;;;;;;;;5014889;28;20094;-86
2024/03/31 12:09:16;;;;;;;0.40;0.40;;;;;;;;;;5014710;28;20522;-85
2024/03/31 12:11:42;;;;;;;0.35;0.35;;;;;;;;;;5014353;28;20067;-85
2024/03/31 12:14:08;;;;;;;0.20;0.20;;;;;;;;;;5014439;28;20120;-86
2024/03/31 12:16:34;;;;;;;0.20;0.20;;;;;;;;;;4997855;28;20041;-85
2024/03/31 12:19:00;;;;;;;0.30;0.30;;;;;;;;;;5014607;28;20095;-85
2024/03/31 12:21:27;;;;;;;0.10;0.10;;;;;;;;;;5014382;28;20469;-85
2024/03/31 12:23:53;;;;;;;0.20;0.20;;;;;;;;;;4998320;28;20048;-83
2024/03/31 12:26:19;;;;;;;0.28;0.28;;;;;;;;;;5014503;28;20041;-85
2024/03/31 12:28:45;;;;;;;0.30;0.30;;;;;;;;;;5014366;28;20551;-84
2024/03/31 12:31:17;;;;;;;0.30;0.30;;;;;;;;;;5014355;28;20128;-84
2024/03/31 12:33:50;;;;;;;0.57;0.57;;;;;;;;;;5030909;28;20542;-85
2024/03/31 12:36:16;;;;;;;0.20;0.20;;;;;;;;;;5014776;28;20099;-85
2024/03/31 12:38:42;;;;;;;0.52;0.52;;;;;;;;;;5014310;28;20570;-85
2024/03/31 12:41:10;;;;;;;0.20;0.20;;;;;;;;;;5014290;28;20045;-85
2024/03/31 12:43:36;;;;;;;0.30;0.30;;;;;;;;;;4998065;28;20042;-84
2024/03/31 12:46:08;;;;;;;0.20;0.20;;;;;;;;;;4997892;28;20049;-85
2024/03/31 12:48:34;;;;;;;0.57;0.57;;;;;;;;;;4998012;28;20050;-85
2024/03/31 12:51:00;;;;;;;0.10;0.10;;;;;;;;;;5030808;28;20115;-85
2024/03/31 12:53:27;;;;;;;0.32;0.32;;;;;;;;;;5014103;28;20120;-85
2024/03/31 12:55:53;;;;;;;0.20;0.20;;;;;;;;;;5030747;28;20045;-85
2024/03/31 12:58:19;;;;;;;0.20;0.20;;;;;;;;;;5031104;28;20441;-85
2024/03/31 13:00:45;;;;;;;0.40;0.40;;;;;;;;;;4997766;28;20124;-85
2024/03/31 13:03:12;;;;;;;0.68;0.68;;;;;;;;;;5014079;28;20045;-84
2024/03/31 13:05:38;;;;;;;0.10;0.10;;;;;;;;;;5030487;28;20051;-84
2024/03/31 13:08:08;;;;;;;0.20;0.20;;;;;;;;;;5013939;28;20052;-85
2024/03/31 13:10:34;;;;;;;0.55;0.55;;;;;;;;;;5030390;28;20153;-84
2024/03/31 13:13:04;;;;;;;0.70;0.52;;;;;;;;;;5030691;28;20048;-84
2024/03/31 13:15:30;;;;;;;0.63;0.60;;;;;;;;;;5014070;28;20040;-86
2024/03/31 13:17:56;;;;;;;0.20;0.20;;;;;;;;;;5030344;28;20041;-85
2024/03/31 13:20:22;;;;;;;0.38;0.30;;;;;;;;;;4997918;28;20404;-86
2024/03/31 13:22:48;;;;;;;0.32;0.32;;;;;;;;;;4997629;28;20041;-86
2024/03/31 13:25:14;;;;;;;0.73;0.47;;;;;;;;;;5013860;28;20041;-85
2024/03/31 13:27:40;;;;;;;0.15;0.15;;;;;;;;;;5013866;28;20038;-85
2024/03/31 13:30:07;;;;;;;0.10;0.10;;;;;;;;;;5033571;28;20091;-84
2024/03/31 13:32:33;;;;;;;0.20;0.20;;;;;;;;;;5017369;28;20129;-84
2024/03/31 13:34:59;;;;;;;0.30;0.30;;;;;;;;;;5017334;28;20069;-84
2024/03/31 13:37:25;;;;;;;0.10;0.10;;;;;;;;;;5017719;28;20422;-84
2024/03/31 13:39:51;;;;;;;1.38;0.73;;;;;;;;;;5033712;28;20124;-84
2024/03/31 13:42:17;;;;;;;0.73;0.73;;;;;;;;;;5017252;28;20072;-84
2024/03/31 13:44:43;;;;;;;0.73;0.73;;;;;;;;;;5033643;28;20533;-85
2024/03/31 13:47:09;;;;;;;0.40;0.40;;;;;;;;;;5033317;28;20049;-84
2024/03/31 13:49:35;;;;;;;0.98;0.98;;;;;;;;;;5017069;28;20049;-84
2024/03/31 13:52:02;;;;;;;0.47;0.45;;;;;;;;;;5033293;28;20041;-84
2024/03/31 13:54:28;;;;;;;1.15;1.05;;;;;;;;;;5000742;28;20340;-84
2024/03/31 13:56:54;;;;;;;0.40;0.40;;;;;;;;;;5017021;28;20220;-84
2024/03/31 13:59:20;;;;;;;0.20;0.20;;;;;;;;;;5033510;28;20041;-84
2024/03/31 14:01:46;;;;;;;0.32;0.30;;;;;;;;;;5033246;28;20204;-84
2024/03/31 14:04:11;;;;;;;0.90;0.68;;;;;;;;;;5033245;28;20038;-86
2024/03/31 14:06:37;;;;;;;0.17;0.17;;;;;;;;;;5033103;28;20041;-86
2024/03/31 14:09:07;;;;;;;0.32;0.32;;;;;;;;;;5033082;28;20088;-86
2024/03/31 14:11:33;;;;;;;0.30;0.30;;;;;;;;;;5033075;28;20080;-86
2024/03/31 14:13:59;;;;;;;0.40;0.40;;;;;;;;;;5033147;28;20083;-86
2024/03/31 14:16:25;;;;;;;0.70;0.45;;;;;;;;;;5033483;28;20121;-91
2024/03/31 14:18:51;;;;;;;0.77;0.63;;;;;;;;;;5001573;28;20396;-90
2024/03/31 14:21:17;;;;;;;0.45;0.45;;;;;;;;;;5017460;28;20041;-90
2024/03/31 14:23:43;;;;;;;0.40;0.40;;;;;;;;;;5000809;28;20388;-86
2024/03/31 14:26:09;;;;;;;3.72;0.75;;;;;;;;;;5016479;28;20042;-86
2024/03/31 14:28:38;;;;;;;0.73;0.73;;;;;;;;;;5016340;28;20547;-86
2024/03/31 14:31:04;;;;;;;0.20;0.20;;;;;;;;;;5016217;28;20080;-87
2024/03/31 14:33:30;;;;;;;0.30;0.30;;;;;;;;;;5033072;28;20388;-84
2024/03/31 14:35:56;;;;;;;0.20;0.20;;;;;;;;;;5016656;28;20114;-87
2024/03/31 14:38:22;;;;;;;0.57;0.30;;;;;;;;;;5032680;28;20041;-86